sensor_id;sensor_type;location;lat;lon;timestamp;temperature;humidity
45319;DHT22;31057;48.498;32.260;2024-01-06T00:01:01;-2.60;99.90
45319;DHT22;31057;48.498;32.260;2024-01-06T00:03:04;-2.70;99.90
45319;DHT22;31057;48.498;32.260;2024-01-06T00:05:06;-2.70;99.90
45319;DHT22;31057;48.498;32.260;2024-01-06T00:07:08;-2.70;99.90
45319;DHT22;31057;48.498;32.260;2024-01-06T00:09:10;-2.70;99.90
45319;DHT22;31057;48.498;32.260;2024-01-06T00:11:12;-2.70;99.90
45319;DHT22;31057;48.498;32.260;2024-01-06T00:13:14;-2.80;99.90
45319;DHT22;31057;48.498;32.260;2024-01-06T00:15:16;-2.70;99.90
45319;DHT22;31057;48.498;32.260;2024-01-06T00:17:18;-2.70;99.90
45319;DHT22;31057;48.498;32.260;2024-01-06T00:19:20;-2.80;99.90
45319;DHT22;31057;48.498;32.260;2024-01-06T00:21:22;-2.80;99.90
45319;DHT22;31057;48.498;32.260;2024-01-06T00:23:24;-2.80;99.90
45319;DHT22;31057;48.498;32.260;2024-01-06T00:25:26;-2.80;99.90
45319;DHT22;31057;48.498;32.260;2024-01-06T00:27:28;-2.80;99.90
45319;DHT22;31057;48.498;32.260;2024-01-06T00:29:30;-2.80;99.90
45319;DHT22;31057;48.498;32.260;2024-01-06T00:31:32;-2.90;99.90
45319;DHT22;31057;48.498;32.260;2024-01-06T00:33:34;-2.90;99.90
45319;DHT22;31057;48.498;32.260;2024-01-06T00:35:36;-3.00;99.90
45319;DHT22;31057;48.498;32.260;2024-01-06T00:37:38;-3.00;99.90
45319;DHT22;31057;48.498;32.260;2024-01-06T00:39:40;-3.00;99.90
45319;DHT22;31057;48.498;32.260;2024-01-06T00:41:42;-2.90;99.90
45319;DHT22;31057;48.498;32.260;2024-01-06T00:43:44;-2.90;99.90
45319;DHT22;31057;48.498;32.260;2024-01-06T00:45:46;-2.90;99.90
45319;DHT22;31057;48.498;32.260;2024-01-06T00:47:48;-3.00;99.90
45319;DHT22;31057;48.498;32.260;2024-01-06T00:49:50;-3.00;99.90
45319;DHT22;31057;48.498;32.260;2024-01-06T00:51:52;-3.00;99.90
45319;DHT22;31057;48.498;32.260;2024-01-06T00:53:55;-3.00;99.90
45319;DHT22;31057;48.498;32.260;2024-01-06T00:55:57;-2.80;99.90
45319;DHT22;31057;48.498;32.260;2024-01-06T00:57:59;-2.80;99.90
45319;DHT22;31057;48.498;32.260;2024-01-06T01:00:03;-2.80;99.90
45319;DHT22;31057;48.498;32.260;2024-01-06T01:02:05;-2.90;99.90
45319;DHT22;31057;48.498;32.260;2024-01-06T01:04:07;-2.90;99.90
45319;DHT22;31057;48.498;32.260;2024-01-06T01:06:11;-2.90;99.90
45319;DHT22;31057;48.498;32.260;2024-01-06T01:08:14;-2.90;99.90
45319;DHT22;31057;48.498;32.260;2024-01-06T01:10:16;-2.80;99.90
45319;DHT22;31057;48.498;32.260;2024-01-06T01:12:18;-2.70;99.90
45319;DHT22;31057;48.498;32.260;2024-01-06T01:14:20;-2.70;99.90
45319;DHT22;31057;48.498;32.260;2024-01-06T01:16:22;-2.80;99.90
45319;DHT22;31057;48.498;32.260;2024-01-06T01:18:24;-2.80;99.90
45319;DHT22;31057;48.498;32.260;2024-01-06T01:20:26;-2.90;99.90
45319;DHT22;31057;48.498;32.260;2024-01-06T01:22:28;-2.90;99.90
45319;DHT22;31057;48.498;32.260;2024-01-06T01:24:30;-3.00;99.90
45319;DHT22;31057;48.498;32.260;2024-01-06T01:26:32;-3.00;99.90
45319;DHT22;31057;48.498;32.260;2024-01-06T01:28:34;-2.90;99.90
45319;DHT22;31057;48.498;32.260;2024-01-06T01:30:36;-3.00;99.90
45319;DHT22;31057;48.498;32.260;2024-01-06T01:32:38;-2.90;99.90
45319;DHT22;31057;48.498;32.260;2024-01-06T01:34:40;-2.90;99.90
45319;DHT22;31057;48.498;32.260;2024-01-06T01:36:43;-2.90;99.90
45319;DHT22;31057;48.498;32.260;2024-01-06T01:38:45;-2.90;99.90
45319;DHT22;31057;48.498;32.260;2024-01-06T01:40:47;-2.90;99.90
45319;DHT22;31057;48.498;32.260;2024-01-06T01:42:48;-2.80;99.90
45319;DHT22;31057;48.498;32.260;2024-01-06T01:44:50;-2.90;99.90
45319;DHT22;31057;48.498;32.260;2024-01-06T01:46:52;-3.10;99.90
45319;DHT22;31057;48.498;32.260;2024-01-06T01:48:55;-3.10;99.90
45319;DHT22;31057;48.498;32.260;2024-01-06T01:50:57;-3.00;99.90
45319;DHT22;31057;48.498;32.260;2024-01-06T01:52:59;-3.10;99.90
45319;DHT22;31057;48.498;32.260;2024-01-06T01:55:01;-3.00;99.90
45319;DHT22;31057;48.498;32.260;2024-01-06T01:57:04;-3.10;99.90
45319;DHT22;31057;48.498;32.260;2024-01-06T01:59:09;-3.10;99.90
45319;DHT22;31057;48.498;32.260;2024-01-06T02:01:14;-3.20;99.90
45319;DHT22;31057;48.498;32.260;2024-01-06T02:03:16;-3.20;99.90
45319;DHT22;31057;48.498;32.260;2024-01-06T02:05:19;-3.10;99.90
45319;DHT22;31057;48.498;32.260;2024-01-06T02:07:22;-3.10;99.90
45319;DHT22;31057;48.498;32.260;2024-01-06T02:09:24;-3.10;99.90
45319;DHT22;31057;48.498;32.260;2024-01-06T02:11:30;-3.20;99.90
45319;DHT22;31057;48.498;32.260;2024-01-06T02:13:34;-3.30;99.90
45319;DHT22;31057;48.498;32.260;2024-01-06T02:15:39;-3.20;99.90
45319;DHT22;31057;48.498;32.260;2024-01-06T02:17:41;-3.20;99.90
45319;DHT22;31057;48.498;32.260;2024-01-06T02:19:44;-3.20;99.90
45319;DHT22;31057;48.498;32.260;2024-01-06T02:21:53;-3.20;99.90
45319;DHT22;31057;48.498;32.260;2024-01-06T02:23:55;-3.20;99.90
45319;DHT22;31057;48.498;32.260;2024-01-06T02:25:57;-3.20;99.90
45319;DHT22;31057;48.498;32.260;2024-01-06T02:27:59;-3.30;99.90
45319;DHT22;31057;48.498;32.260;2024-01-06T02:30:01;-3.20;99.90
45319;DHT22;31057;48.498;32.260;2024-01-06T02:32:04;-3.30;99.90
45319;DHT22;31057;48.498;32.260;2024-01-06T02:34:06;-3.20;99.90
45319;DHT22;31057;48.498;32.260;2024-01-06T02:36:08;-3.20;99.90
45319;DHT22;31057;48.498;32.260;2024-01-06T02:38:10;-3.30;99.90
45319;DHT22;31057;48.498;32.260;2024-01-06T02:40:13;-3.30;99.90
45319;DHT22;31057;48.498;32.260;2024-01-06T02:42:15;-3.20;99.90
45319;DHT22;31057;48.498;32.260;2024-01-06T02:44:17;-3.20;99.90
45319;DHT22;31057;48.498;32.260;2024-01-06T02:46:19;-3.20;99.90
45319;DHT22;31057;48.498;32.260;2024-01-06T02:48:21;-3.30;99.90
45319;DHT22;31057;48.498;32.260;2024-01-06T02:50:23;-3.30;99.90
45319;DHT22;31057;48.498;32.260;2024-01-06T02:52:25;-3.30;99.90
45319;DHT22;31057;48.498;32.260;2024-01-06T02:54:27;-3.30;99.90
45319;DHT22;31057;48.498;32.260;2024-01-06T02:56:29;-3.40;99.90
45319;DHT22;31057;48.498;32.260;2024-01-06T02:58:31;-3.40;99.90
45319;DHT22;31057;48.498;32.260;2024-01-06T03:00:33;-3.40;99.90
45319;DHT22;31057;48.498;32.260;2024-01-06T03:02:35;-3.40;99.90
45319;DHT22;31057;48.498;32.260;2024-01-06T03:04:39;-3.40;99.90
45319;DHT22;31057;48.498;32.260;2024-01-06T03:06:41;-3.50;99.90
45319;DHT22;31057;48.498;32.260;2024-01-06T03:08:43;-3.40;99.90
45319;DHT22;31057;48.498;32.260;2024-01-06T03:10:45;-3.50;99.90
45319;DHT22;31057;48.498;32.260;2024-01-06T03:12:47;-3.40;99.90
45319;DHT22;31057;48.498;32.260;2024-01-06T03:14:49;-3.40;99.90
45319;DHT22;31057;48.498;32.260;2024-01-06T03:16:51;-3.40;99.90
45319;DHT22;31057;48.498;32.260;2024-01-06T03:18:52;-3.30;99.90
45319;DHT22;31057;48.498;32.260;2024-01-06T03:20:54;-3.40;99.90
45319;DHT22;31057;48.498;32.260;2024-01-06T03:22:56;-3.40;99.90
45319;DHT22;31057;48.498;32.260;2024-01-06T03:24:58;-3.40;99.90
45319;DHT22;31057;48.498;32.260;2024-01-06T03:27:00;-3.30;99.90
45319;DHT22;31057;48.498;32.260;2024-01-06T03:29:02;-3.40;99.90
45319;DHT22;31057;48.498;32.260;2024-01-06T03:31:04;-3.30;99.90
45319;DHT22;31057;48.498;32.260;2024-01-06T03:33:06;-3.30;99.90
45319;DHT22;31057;48.498;32.260;2024-01-06T03:35:08;-3.20;99.90
45319;DHT22;31057;48.498;32.260;2024-01-06T03:37:10;-3.30;99.90
45319;DHT22;31057;48.498;32.260;2024-01-06T03:39:12;-3.20;99.90
45319;DHT22;31057;48.498;32.260;2024-01-06T03:41:15;-3.20;99.90
45319;DHT22;31057;48.498;32.260;2024-01-06T03:43:17;-3.10;99.90
45319;DHT22;31057;48.498;32.260;2024-01-06T03:45:19;-3.10;99.90
45319;DHT22;31057;48.498;32.260;2024-01-06T03:47:21;-3.10;99.90
45319;DHT22;31057;48.498;32.260;2024-01-06T03:49:24;-3.10;99.90
45319;DHT22;31057;48.498;32.260;2024-01-06T03:51:26;-3.10;99.90
45319;DHT22;31057;48.498;32.260;2024-01-06T03:53:28;-3.10;99.90
45319;DHT22;31057;48.498;32.260;2024-01-06T03:55:30;-3.20;99.90
45319;DHT22;31057;48.498;32.260;2024-01-06T03:57:32;-3.10;99.90
45319;DHT22;31057;48.498;32.260;2024-01-06T03:59:34;-3.00;99.90
45319;DHT22;31057;48.498;32.260;2024-01-06T04:01:36;-3.00;99.90
45319;DHT22;31057;48.498;32.260;2024-01-06T04:03:38;-3.00;99.90
45319;DHT22;31057;48.498;32.260;2024-01-06T04:05:42;-3.10;99.90
45319;DHT22;31057;48.498;32.260;2024-01-06T04:07:44;-3.10;99.90
45319;DHT22;31057;48.498;32.260;2024-01-06T04:09:46;-3.00;99.90
45319;DHT22;31057;48.498;32.260;2024-01-06T04:11:48;-2.90;99.90
45319;DHT22;31057;48.498;32.260;2024-01-06T04:13:50;-2.90;99.90
45319;DHT22;31057;48.498;32.260;2024-01-06T04:15:52;-2.90;99.90
45319;DHT22;31057;48.498;32.260;2024-01-06T04:17:54;-2.90;99.90
45319;DHT22;31057;48.498;32.260;2024-01-06T04:19:56;-3.00;99.90
45319;DHT22;31057;48.498;32.260;2024-01-06T04:21:59;-3.00;99.90
45319;DHT22;31057;48.498;32.260;2024-01-06T04:24:01;-3.00;99.90
45319;DHT22;31057;48.498;32.260;2024-01-06T04:26:03;-3.00;99.90
45319;DHT22;31057;48.498;32.260;2024-01-06T04:28:06;-3.10;99.90
45319;DHT22;31057;48.498;32.260;2024-01-06T04:30:08;-3.00;99.90
45319;DHT22;31057;48.498;32.260;2024-01-06T04:32:10;-3.00;99.90
45319;DHT22;31057;48.498;32.260;2024-01-06T04:34:12;-3.00;99.90
45319;DHT22;31057;48.498;32.260;2024-01-06T04:36:15;-3.00;99.90
45319;DHT22;31057;48.498;32.260;2024-01-06T04:38:17;-2.80;99.90
45319;DHT22;31057;48.498;32.260;2024-01-06T04:40:18;-2.70;99.90
45319;DHT22;31057;48.498;32.260;2024-01-06T04:42:20;-2.70;99.90
45319;DHT22;31057;48.498;32.260;2024-01-06T04:44:24;-2.70;99.90
45319;DHT22;31057;48.498;32.260;2024-01-06T04:46:26;-2.60;99.90
45319;DHT22;31057;48.498;32.260;2024-01-06T04:48:28;-2.60;99.90
45319;DHT22;31057;48.498;32.260;2024-01-06T04:50:30;-2.60;99.90
45319;DHT22;31057;48.498;32.260;2024-01-06T04:52:32;-2.70;99.90
45319;DHT22;31057;48.498;32.260;2024-01-06T04:54:34;-2.80;99.90
45319;DHT22;31057;48.498;32.260;2024-01-06T04:56:36;-2.70;99.90
45319;DHT22;31057;48.498;32.260;2024-01-06T04:58:38;-2.70;99.90
45319;DHT22;31057;48.498;32.260;2024-01-06T05:00:39;-2.70;99.90
45319;DHT22;31057;48.498;32.260;2024-01-06T05:02:41;-2.70;99.90
45319;DHT22;31057;48.498;32.260;2024-01-06T05:04:44;-2.70;99.90
45319;DHT22;31057;48.498;32.260;2024-01-06T05:06:46;-2.70;99.90
45319;DHT22;31057;48.498;32.260;2024-01-06T05:08:48;-2.60;99.90
45319;DHT22;31057;48.498;32.260;2024-01-06T05:10:52;-2.60;99.90
45319;DHT22;31057;48.498;32.260;2024-01-06T05:12:55;-2.60;99.90
45319;DHT22;31057;48.498;32.260;2024-01-06T05:14:56;-2.50;99.90
45319;DHT22;31057;48.498;32.260;2024-01-06T05:16:58;-2.50;99.90
45319;DHT22;31057;48.498;32.260;2024-01-06T05:19:00;-2.30;99.90
45319;DHT22;31057;48.498;32.260;2024-01-06T05:21:03;-2.40;99.90
45319;DHT22;31057;48.498;32.260;2024-01-06T05:23:08;-2.50;99.90
45319;DHT22;31057;48.498;32.260;2024-01-06T05:25:10;-2.40;99.90
45319;DHT22;31057;48.498;32.260;2024-01-06T05:27:12;-2.50;99.90
45319;DHT22;31057;48.498;32.260;2024-01-06T05:29:15;-2.40;99.90
45319;DHT22;31057;48.498;32.260;2024-01-06T05:31:17;-2.50;99.90
45319;DHT22;31057;48.498;32.260;2024-01-06T05:33:19;-2.40;99.90
45319;DHT22;31057;48.498;32.260;2024-01-06T05:35:21;-2.40;99.90
45319;DHT22;31057;48.498;32.260;2024-01-06T05:37:23;-2.40;99.90
45319;DHT22;31057;48.498;32.260;2024-01-06T05:39:25;-2.40;99.90
45319;DHT22;31057;48.498;32.260;2024-01-06T05:41:27;-2.40;99.90
45319;DHT22;31057;48.498;32.260;2024-01-06T05:43:29;-2.50;99.90
45319;DHT22;31057;48.498;32.260;2024-01-06T05:45:31;-2.60;99.90
45319;DHT22;31057;48.498;32.260;2024-01-06T05:47:34;-2.50;99.90
45319;DHT22;31057;48.498;32.260;2024-01-06T05:49:40;-2.60;99.90
45319;DHT22;31057;48.498;32.260;2024-01-06T05:51:46;-2.60;99.90
45319;DHT22;31057;48.498;32.260;2024-01-06T05:53:48;-2.50;99.90
45319;DHT22;31057;48.498;32.260;2024-01-06T05:55:50;-2.40;99.90
45319;DHT22;31057;48.498;32.260;2024-01-06T05:57:52;-2.40;99.90
45319;DHT22;31057;48.498;32.260;2024-01-06T05:59:54;-2.40;99.90
45319;DHT22;31057;48.498;32.260;2024-01-06T06:01:56;-2.40;99.90
45319;DHT22;31057;48.498;32.260;2024-01-06T06:03:58;-2.30;99.90
45319;DHT22;31057;48.498;32.260;2024-01-06T06:06:00;-2.30;99.90
45319;DHT22;31057;48.498;32.260;2024-01-06T06:08:02;-2.30;99.90
45319;DHT22;31057;48.498;32.260;2024-01-06T06:10:09;-2.20;99.90
45319;DHT22;31057;48.498;32.260;2024-01-06T06:12:13;-2.20;99.90
45319;DHT22;31057;48.498;32.260;2024-01-06T06:14:14;-2.20;99.90
45319;DHT22;31057;48.498;32.260;2024-01-06T06:16:16;-2.20;99.90
45319;DHT22;31057;48.498;32.260;2024-01-06T06:18:18;-2.20;99.90
45319;DHT22;31057;48.498;32.260;2024-01-06T06:20:20;-2.10;99.90
45319;DHT22;31057;48.498;32.260;2024-01-06T06:22:22;-1.70;99.90
45319;DHT22;31057;48.498;32.260;2024-01-06T06:24:24;-1.90;99.90
45319;DHT22;31057;48.498;32.260;2024-01-06T06:26:28;-1.90;99.90
45319;DHT22;31057;48.498;32.260;2024-01-06T06:28:30;-2.00;99.90
45319;DHT22;31057;48.498;32.260;2024-01-06T06:30:32;-1.90;99.90
45319;DHT22;31057;48.498;32.260;2024-01-06T06:32:34;-1.90;99.90
45319;DHT22;31057;48.498;32.260;2024-01-06T06:34:36;-1.90;99.90
45319;DHT22;31057;48.498;32.260;2024-01-06T06:36:38;-2.00;99.90
45319;DHT22;31057;48.498;32.260;2024-01-06T06:38:40;-1.90;99.90
45319;DHT22;31057;48.498;32.260;2024-01-06T06:40:42;-2.00;99.90
45319;DHT22;31057;48.498;32.260;2024-01-06T06:42:44;-1.90;99.90
45319;DHT22;31057;48.498;32.260;2024-01-06T06:44:46;-1.90;99.90
45319;DHT22;31057;48.498;32.260;2024-01-06T06:46:48;-1.90;99.90
45319;DHT22;31057;48.498;32.260;2024-01-06T06:48:50;-1.90;99.90
45319;DHT22;31057;48.498;32.260;2024-01-06T06:50:52;-1.80;99.90
45319;DHT22;31057;48.498;32.260;2024-01-06T06:52:54;-1.70;99.90
45319;DHT22;31057;48.498;32.260;2024-01-06T06:54:56;-1.80;99.90
45319;DHT22;31057;48.498;32.260;2024-01-06T06:56:59;-1.80;99.90
45319;DHT22;31057;48.498;32.260;2024-01-06T06:59:01;-1.70;99.90
45319;DHT22;31057;48.498;32.260;2024-01-06T07:01:03;-1.60;99.90
45319;DHT22;31057;48.498;32.260;2024-01-06T07:03:07;-1.60;99.90
45319;DHT22;31057;48.498;32.260;2024-01-06T07:05:09;-1.70;99.90
45319;DHT22;31057;48.498;32.260;2024-01-06T07:07:11;-1.60;99.90
45319;DHT22;31057;48.498;32.260;2024-01-06T07:09:13;-1.60;99.90
45319;DHT22;31057;48.498;32.260;2024-01-06T07:11:15;-1.50;99.90
45319;DHT22;31057;48.498;32.260;2024-01-06T07:13:20;-1.50;99.90
45319;DHT22;31057;48.498;32.260;2024-01-06T07:15:23;-1.40;99.90
45319;DHT22;31057;48.498;32.260;2024-01-06T07:17:25;-1.40;99.90
45319;DHT22;31057;48.498;32.260;2024-01-06T07:19:27;-1.40;99.90
45319;DHT22;31057;48.498;32.260;2024-01-06T07:21:29;-1.30;99.90
45319;DHT22;31057;48.498;32.260;2024-01-06T07:23:32;-1.40;99.90
45319;DHT22;31057;48.498;32.260;2024-01-06T07:25:35;-1.20;99.90
45319;DHT22;31057;48.498;32.260;2024-01-06T07:27:37;-1.20;99.90
45319;DHT22;31057;48.498;32.260;2024-01-06T07:29:39;-1.20;99.90
45319;DHT22;31057;48.498;32.260;2024-01-06T07:31:42;-1.20;99.90
45319;DHT22;31057;48.498;32.260;2024-01-06T07:33:44;-1.20;99.90
45319;DHT22;31057;48.498;32.260;2024-01-06T07:35:46;-1.10;99.90
45319;DHT22;31057;48.498;32.260;2024-01-06T07:37:48;-1.10;99.90
45319;DHT22;31057;48.498;32.260;2024-01-06T07:39:50;-1.10;99.90
45319;DHT22;31057;48.498;32.260;2024-01-06T07:41:52;-1.10;99.90
45319;DHT22;31057;48.498;32.260;2024-01-06T07:43:54;-1.10;99.90
45319;DHT22;31057;48.498;32.260;2024-01-06T07:45:56;-1.00;99.90
45319;DHT22;31057;48.498;32.260;2024-01-06T07:47:58;-0.90;99.90
45319;DHT22;31057;48.498;32.260;2024-01-06T07:50:01;-0.80;99.90
45319;DHT22;31057;48.498;32.260;2024-01-06T07:52:03;-0.80;99.90
45319;DHT22;31057;48.498;32.260;2024-01-06T07:54:05;-0.70;99.90
45319;DHT22;31057;48.498;32.260;2024-01-06T07:56:10;-0.70;99.90
45319;DHT22;31057;48.498;32.260;2024-01-06T07:58:12;-0.60;99.90
45319;DHT22;31057;48.498;32.260;2024-01-06T08:00:14;-0.50;99.90
45319;DHT22;31057;48.498;32.260;2024-01-06T08:02:16;-0.40;99.90
45319;DHT22;31057;48.498;32.260;2024-01-06T08:04:20;-0.40;99.90
45319;DHT22;31057;48.498;32.260;2024-01-06T08:06:22;-0.40;99.90
45319;DHT22;31057;48.498;32.260;2024-01-06T08:08:25;-0.30;99.90
45319;DHT22;31057;48.498;32.260;2024-01-06T08:10:27;-0.20;99.90
45319;DHT22;31057;48.498;32.260;2024-01-06T08:12:29;-0.10;99.90
45319;DHT22;31057;48.498;32.260;2024-01-06T08:14:31;-0.10;99.90
45319;DHT22;31057;48.498;32.260;2024-01-06T08:16:34;0.00;99.90
45319;DHT22;31057;48.498;32.260;2024-01-06T08:18:37;0.10;99.90
45319;DHT22;31057;48.498;32.260;2024-01-06T08:20:40;0.20;99.90
45319;DHT22;31057;48.498;32.260;2024-01-06T08:22:41;0.30;99.90
45319;DHT22;31057;48.498;32.260;2024-01-06T08:24:43;0.50;99.90
45319;DHT22;31057;48.498;32.260;2024-01-06T08:26:45;0.50;99.90
45319;DHT22;31057;48.498;32.260;2024-01-06T08:28:47;0.50;99.90
45319;DHT22;31057;48.498;32.260;2024-01-06T08:30:49;0.70;99.90
45319;DHT22;31057;48.498;32.260;2024-01-06T08:32:52;0.70;99.90
45319;DHT22;31057;48.498;32.260;2024-01-06T08:34:54;0.80;99.90
45319;DHT22;31057;48.498;32.260;2024-01-06T08:36:56;0.80;99.90
45319;DHT22;31057;48.498;32.260;2024-01-06T08:38:58;0.70;99.90
45319;DHT22;31057;48.498;32.260;2024-01-06T08:41:00;0.70;99.90
45319;DHT22;31057;48.498;32.260;2024-01-06T08:43:02;0.70;99.90
45319;DHT22;31057;48.498;32.260;2024-01-06T08:45:05;0.70;99.90
45319;DHT22;31057;48.498;32.260;2024-01-06T08:47:07;0.70;99.90
45319;DHT22;31057;48.498;32.260;2024-01-06T08:49:08;0.70;99.90
45319;DHT22;31057;48.498;32.260;2024-01-06T08:51:11;0.70;99.90
45319;DHT22;31057;48.498;32.260;2024-01-06T08:53:13;0.70;99.90
45319;DHT22;31057;48.498;32.260;2024-01-06T08:55:15;0.70;99.90
45319;DHT22;31057;48.498;32.260;2024-01-06T08:57:18;0.70;99.90
45319;DHT22;31057;48.498;32.260;2024-01-06T08:59:20;0.80;99.90
45319;DHT22;31057;48.498;32.260;2024-01-06T09:01:22;0.80;99.90
45319;DHT22;31057;48.498;32.260;2024-01-06T09:03:24;0.70;99.90
45319;DHT22;31057;48.498;32.260;2024-01-06T09:05:28;0.70;99.90
45319;DHT22;31057;48.498;32.260;2024-01-06T09:07:30;0.80;99.90
45319;DHT22;31057;48.498;32.260;2024-01-06T09:09:32;1.00;99.90
45319;DHT22;31057;48.498;32.260;2024-01-06T09:11:37;1.20;99.90
45319;DHT22;31057;48.498;32.260;2024-01-06T09:13:39;1.20;99.90
45319;DHT22;31057;48.498;32.260;2024-01-06T09:15:41;1.40;99.90
45319;DHT22;31057;48.498;32.260;2024-01-06T09:17:43;1.50;99.90
45319;DHT22;31057;48.498;32.260;2024-01-06T09:19:45;1.50;99.90
45319;DHT22;31057;48.498;32.260;2024-01-06T09:21:47;1.50;99.90
45319;DHT22;31057;48.498;32.260;2024-01-06T09:23:49;1.50;99.90
45319;DHT22;31057;48.498;32.260;2024-01-06T09:25:51;1.70;99.90
45319;DHT22;31057;48.498;32.260;2024-01-06T09:27:54;1.70;99.90
45319;DHT22;31057;48.498;32.260;2024-01-06T09:29:56;1.60;99.90
45319;DHT22;31057;48.498;32.260;2024-01-06T09:31:58;1.80;99.90
45319;DHT22;31057;48.498;32.260;2024-01-06T09:34:00;1.80;99.90
45319;DHT22;31057;48.498;32.260;2024-01-06T09:36:06;2.00;99.90
45319;DHT22;31057;48.498;32.260;2024-01-06T09:38:08;1.90;99.90
45319;DHT22;31057;48.498;32.260;2024-01-06T09:40:12;2.00;99.90
45319;DHT22;31057;48.498;32.260;2024-01-06T09:42:17;1.90;99.90
45319;DHT22;31057;48.498;32.260;2024-01-06T09:44:19;2.00;99.90
45319;DHT22;31057;48.498;32.260;2024-01-06T09:46:28;2.00;99.90
45319;DHT22;31057;48.498;32.260;2024-01-06T09:48:39;2.10;99.90
45319;DHT22;31057;48.498;32.260;2024-01-06T09:50:44;2.10;99.90
45319;DHT22;31057;48.498;32.260;2024-01-06T09:52:49;2.20;99.90
45319;DHT22;31057;48.498;32.260;2024-01-06T09:54:57;2.10;99.90
45319;DHT22;31057;48.498;32.260;2024-01-06T09:57:02;2.30;99.90
45319;DHT22;31057;48.498;32.260;2024-01-06T09:59:10;2.30;99.90
45319;DHT22;31057;48.498;32.260;2024-01-06T10:01:14;2.40;99.90
45319;DHT22;31057;48.498;32.260;2024-01-06T10:03:18;2.50;99.90
45319;DHT22;31057;48.498;32.260;2024-01-06T10:05:23;2.50;99.90
45319;DHT22;31057;48.498;32.260;2024-01-06T10:07:26;2.40;99.90
45319;DHT22;31057;48.498;32.260;2024-01-06T10:09:28;2.50;99.90
45319;DHT22;31057;48.498;32.260;2024-01-06T10:11:32;2.50;99.90
45319;DHT22;31057;48.498;32.260;2024-01-06T10:13:34;2.60;99.90
45319;DHT22;31057;48.498;32.260;2024-01-06T10:15:36;2.60;99.90
45319;DHT22;31057;48.498;32.260;2024-01-06T10:17:39;2.60;99.90
45319;DHT22;31057;48.498;32.260;2024-01-06T10:19:47;2.60;99.90
45319;DHT22;31057;48.498;32.260;2024-01-06T10:21:50;2.70;99.90
45319;DHT22;31057;48.498;32.260;2024-01-06T10:23:54;2.70;99.90
45319;DHT22;31057;48.498;32.260;2024-01-06T10:25:56;2.80;99.90
45319;DHT22;31057;48.498;32.260;2024-01-06T10:28:04;2.80;99.90
45319;DHT22;31057;48.498;32.260;2024-01-06T10:30:08;2.90;99.90
45319;DHT22;31057;48.498;32.260;2024-01-06T10:32:10;2.80;99.90
45319;DHT22;31057;48.498;32.260;2024-01-06T10:34:12;2.90;99.90
45319;DHT22;31057;48.498;32.260;2024-01-06T10:36:16;2.80;99.90
45319;DHT22;31057;48.498;32.260;2024-01-06T10:38:18;2.90;99.90
45319;DHT22;31057;48.498;32.260;2024-01-06T10:40:22;2.90;99.90
45319;DHT22;31057;48.498;32.260;2024-01-06T10:42:24;3.00;99.90
45319;DHT22;31057;48.498;32.260;2024-01-06T10:44:26;3.00;99.90
45319;DHT22;31057;48.498;32.260;2024-01-06T10:46:30;3.00;99.90
45319;DHT22;31057;48.498;32.260;2024-01-06T10:48:35;3.00;99.90
45319;DHT22;31057;48.498;32.260;2024-01-06T10:50:37;3.00;99.90
45319;DHT22;31057;48.498;32.260;2024-01-06T10:52:40;3.00;99.90
45319;DHT22;31057;48.498;32.260;2024-01-06T10:54:43;3.10;99.90
45319;DHT22;31057;48.498;32.260;2024-01-06T10:56:47;3.10;99.90
45319;DHT22;31057;48.498;32.260;2024-01-06T10:58:50;3.00;99.90
45319;DHT22;31057;48.498;32.260;2024-01-06T11:00:56;3.10;99.90
45319;DHT22;31057;48.498;32.260;2024-01-06T11:02:58;3.10;99.90
45319;DHT22;31057;48.498;32.260;2024-01-06T11:05:01;3.10;99.90
45319;DHT22;31057;48.498;32.260;2024-01-06T11:07:04;3.20;99.90
45319;DHT22;31057;48.498;32.260;2024-01-06T11:09:16;3.10;99.90
45319;DHT22;31057;48.498;32.260;2024-01-06T11:11:21;3.10;99.90
45319;DHT22;31057;48.498;32.260;2024-01-06T11:13:25;3.10;99.90
45319;DHT22;31057;48.498;32.260;2024-01-06T11:16:03;3.10;99.90
45319;DHT22;31057;48.498;32.260;2024-01-06T11:18:06;3.00;99.90
45319;DHT22;31057;48.498;32.260;2024-01-06T11:20:09;3.10;99.90
45319;DHT22;31057;48.498;32.260;2024-01-06T11:22:24;3.20;99.90
45319;DHT22;31057;48.498;32.260;2024-01-06T11:24:27;3.10;99.90
45319;DHT22;31057;48.498;32.260;2024-01-06T11:26:38;3.10;99.90
45319;DHT22;31057;48.498;32.260;2024-01-06T11:28:46;3.10;99.90
45319;DHT22;31057;48.498;32.260;2024-01-06T11:31:05;3.20;99.90
45319;DHT22;31057;48.498;32.260;2024-01-06T11:33:09;3.20;99.90
45319;DHT22;31057;48.498;32.260;2024-01-06T11:35:14;3.20;99.90
45319;DHT22;31057;48.498;32.260;2024-01-06T11:37:18;3.20;99.90
45319;DHT22;31057;48.498;32.260;2024-01-06T11:39:49;3.30;99.90
45319;DHT22;31057;48.498;32.260;2024-01-06T11:41:51;3.30;99.90
45319;DHT22;31057;48.498;32.260;2024-01-06T11:43:55;3.20;99.90
45319;DHT22;31057;48.498;32.260;2024-01-06T11:45:58;3.20;99.90
45319;DHT22;31057;48.498;32.260;2024-01-06T11:48:04;3.20;99.90
45319;DHT22;31057;48.498;32.260;2024-01-06T11:50:07;3.30;99.90
45319;DHT22;31057;48.498;32.260;2024-01-06T11:52:09;3.30;99.90
45319;DHT22;31057;48.498;32.260;2024-01-06T11:54:11;3.30;99.90
45319;DHT22;31057;48.498;32.260;2024-01-06T11:56:15;3.30;99.90
45319;DHT22;31057;48.498;32.260;2024-01-06T11:58:25;3.20;99.90
45319;DHT22;31057;48.498;32.260;2024-01-06T12:00:27;3.20;99.90
45319;DHT22;31057;48.498;32.260;2024-01-06T12:02:30;3.20;99.90
45319;DHT22;31057;48.498;32.260;2024-01-06T12:04:31;3.20;99.90
45319;DHT22;31057;48.498;32.260;2024-01-06T12:06:35;3.20;99.90
45319;DHT22;31057;48.498;32.260;2024-01-06T12:08:37;3.20;99.90
45319;DHT22;31057;48.498;32.260;2024-01-06T12:10:39;3.20;99.90
45319;DHT22;31057;48.498;32.260;2024-01-06T12:12:42;3.20;99.90
45319;DHT22;31057;48.498;32.260;2024-01-06T12:14:44;3.20;99.90
45319;DHT22;31057;48.498;32.260;2024-01-06T12:16:49;3.20;99.90
45319;DHT22;31057;48.498;32.260;2024-01-06T12:18:51;3.30;99.90
45319;DHT22;31057;48.498;32.260;2024-01-06T12:20:53;3.30;99.90
45319;DHT22;31057;48.498;32.260;2024-01-06T12:22:56;3.30;99.90
45319;DHT22;31057;48.498;32.260;2024-01-06T12:24:58;3.30;99.90
45319;DHT22;31057;48.498;32.260;2024-01-06T12:27:01;3.20;99.90
45319;DHT22;31057;48.498;32.260;2024-01-06T12:29:04;3.20;99.90
45319;DHT22;31057;48.498;32.260;2024-01-06T12:31:09;3.20;99.90
45319;DHT22;31057;48.498;32.260;2024-01-06T12:33:11;3.20;99.90
45319;DHT22;31057;48.498;32.260;2024-01-06T12:35:14;3.20;99.90
45319;DHT22;31057;48.498;32.260;2024-01-06T12:37:16;3.10;99.90
45319;DHT22;31057;48.498;32.260;2024-01-06T12:39:18;3.20;99.90
45319;DHT22;31057;48.498;32.260;2024-01-06T12:41:21;3.20;99.90
45319;DHT22;31057;48.498;32.260;2024-01-06T12:43:22;3.20;99.90
45319;DHT22;31057;48.498;32.260;2024-01-06T12:45:24;3.20;99.90
45319;DHT22;31057;48.498;32.260;2024-01-06T12:47:26;3.20;99.90